sensor_id;sensor_type;location;lat;lon;timestamp;temperature;humidity
16247;DHT22;8231;50.866;7.944;2023-04-19T00:01:58;10.10;99.90
16247;DHT22;8231;50.866;7.944;2023-04-19T00:04:26;10.30;99.90
16247;DHT22;8231;50.866;7.944;2023-04-19T00:06:57;10.10;99.90
16247;DHT22;8231;50.866;7.944;2023-04-19T00:09:25;10.00;99.90
16247;DHT22;8231;50.866;7.944;2023-04-19T00:11:54;10.10;99.90
16247;DHT22;8231;50.866;7.944;2023-04-19T00:14:22;10.10;99.90
16247;DHT22;8231;50.866;7.944;2023-04-19T00:16:50;10.20;99.90
16247;DHT22;8231;50.866;7.944;2023-04-19T00:19:18;10.30;99.90
16247;DHT22;8231;50.866;7.944;2023-04-19T00:21:48;10.60;99.90
16247;DHT22;8231;50.866;7.944;2023-04-19T00:24:17;10.10;99.90
16247;DHT22;8231;50.866;7.944;2023-04-19T00:26:46;10.10;99.90
16247;DHT22;8231;50.866;7.944;2023-04-19T00:29:14;10.10;99.90
16247;DHT22;8231;50.866;7.944;2023-04-19T00:31:42;10.10;99.90
16247;DHT22;8231;50.866;7.944;2023-04-19T00:34:10;10.00;99.90
16247;DHT22;8231;50.866;7.944;2023-04-19T00:36:39;10.00;99.90
16247;DHT22;8231;50.866;7.944;2023-04-19T00:39:07;10.00;99.90
16247;DHT22;8231;50.866;7.944;2023-04-19T00:41:39;10.10;99.90
16247;DHT22;8231;50.866;7.944;2023-04-19T00:44:07;10.00;99.90
16247;DHT22;8231;50.866;7.944;2023-04-19T00:46:36;10.00;99.90
16247;DHT22;8231;50.866;7.944;2023-04-19T00:49:05;10.00;99.90
16247;DHT22;8231;50.866;7.944;2023-04-19T00:51:33;10.10;99.90
16247;DHT22;8231;50.866;7.944;2023-04-19T00:54:03;10.30;99.90
16247;DHT22;8231;50.866;7.944;2023-04-19T00:56:33;10.00;99.90
16247;DHT22;8231;50.866;7.944;2023-04-19T00:59:02;10.00;99.90
16247;DHT22;8231;50.866;7.944;2023-04-19T01:01:33;10.00;99.90
16247;DHT22;8231;50.866;7.944;2023-04-19T01:04:01;9.90;99.90
16247;DHT22;8231;50.866;7.944;2023-04-19T01:06:30;9.90;99.90
16247;DHT22;8231;50.866;7.944;2023-04-19T01:08:58;10.10;99.90
16247;DHT22;8231;50.866;7.944;2023-04-19T01:11:27;9.90;99.90
16247;DHT22;8231;50.866;7.944;2023-04-19T01:13:55;9.60;99.90
16247;DHT22;8231;50.866;7.944;2023-04-19T01:16:25;9.90;99.90
16247;DHT22;8231;50.866;7.944;2023-04-19T01:18:54;9.90;99.90
16247;DHT22;8231;50.866;7.944;2023-04-19T01:21:22;9.90;99.90
16247;DHT22;8231;50.866;7.944;2023-04-19T01:23:53;9.90;99.90
16247;DHT22;8231;50.866;7.944;2023-04-19T01:26:21;9.90;99.90
16247;DHT22;8231;50.866;7.944;2023-04-19T01:28:50;9.90;99.90
16247;DHT22;8231;50.866;7.944;2023-04-19T01:31:18;9.90;99.90
16247;DHT22;8231;50.866;7.944;2023-04-19T01:33:46;9.90;99.90
16247;DHT22;8231;50.866;7.944;2023-04-19T01:36:14;9.90;99.90
16247;DHT22;8231;50.866;7.944;2023-04-19T01:38:42;10.00;99.90
16247;DHT22;8231;50.866;7.944;2023-04-19T01:41:15;10.00;99.90
16247;DHT22;8231;50.866;7.944;2023-04-19T01:43:43;10.00;99.90
16247;DHT22;8231;50.866;7.944;2023-04-19T01:46:11;10.00;99.90
16247;DHT22;8231;50.866;7.944;2023-04-19T01:48:40;9.90;99.90
16247;DHT22;8231;50.866;7.944;2023-04-19T01:51:08;9.90;99.90
16247;DHT22;8231;50.866;7.944;2023-04-19T01:53:36;9.80;99.90
16247;DHT22;8231;50.866;7.944;2023-04-19T01:56:04;9.90;99.90
16247;DHT22;8231;50.866;7.944;2023-04-19T01:58:34;9.80;99.90
16247;DHT22;8231;50.866;7.944;2023-04-19T02:01:02;9.80;99.90
16247;DHT22;8231;50.866;7.944;2023-04-19T02:03:31;9.80;99.90
16247;DHT22;8231;50.866;7.944;2023-04-19T02:05:59;9.80;99.90
16247;DHT22;8231;50.866;7.944;2023-04-19T02:08:28;9.70;99.90
16247;DHT22;8231;50.866;7.944;2023-04-19T02:10:56;9.70;99.90
16247;DHT22;8231;50.866;7.944;2023-04-19T02:13:24;9.70;99.90
16247;DHT22;8231;50.866;7.944;2023-04-19T02:15:54;9.70;99.90
16247;DHT22;8231;50.866;7.944;2023-04-19T02:18:22;9.60;99.90
16247;DHT22;8231;50.866;7.944;2023-04-19T02:20:52;9.60;99.90
16247;DHT22;8231;50.866;7.944;2023-04-19T02:23:20;9.60;99.90
16247;DHT22;8231;50.866;7.944;2023-04-19T02:25:48;9.60;99.90
16247;DHT22;8231;50.866;7.944;2023-04-19T02:28:16;9.60;99.90
16247;DHT22;8231;50.866;7.944;2023-04-19T02:30:45;9.60;99.90
16247;DHT22;8231;50.866;7.944;2023-04-19T02:33:14;9.60;99.90
16247;DHT22;8231;50.866;7.944;2023-04-19T02:35:43;9.60;99.90
16247;DHT22;8231;50.866;7.944;2023-04-19T02:38:11;9.60;99.90
16247;DHT22;8231;50.866;7.944;2023-04-19T02:40:39;9.60;99.90
16247;DHT22;8231;50.866;7.944;2023-04-19T02:43:08;9.70;99.90
16247;DHT22;8231;50.866;7.944;2023-04-19T02:45:36;9.70;99.90
16247;DHT22;8231;50.866;7.944;2023-04-19T02:48:05;9.70;99.90
16247;DHT22;8231;50.866;7.944;2023-04-19T02:50:36;9.70;99.90
16247;DHT22;8231;50.866;7.944;2023-04-19T02:53:04;9.70;99.90
16247;DHT22;8231;50.866;7.944;2023-04-19T02:55:33;9.70;99.90
16247;DHT22;8231;50.866;7.944;2023-04-19T02:58:07;9.70;99.90
16247;DHT22;8231;50.866;7.944;2023-04-19T03:00:42;9.60;99.90
16247;DHT22;8231;50.866;7.944;2023-04-19T03:03:14;9.60;99.90
16247;DHT22;8231;50.866;7.944;2023-04-19T03:05:43;9.60;99.90
16247;DHT22;8231;50.866;7.944;2023-04-19T03:08:12;9.50;99.90
16247;DHT22;8231;50.866;7.944;2023-04-19T03:10:40;9.60;99.90
16247;DHT22;8231;50.866;7.944;2023-04-19T03:13:09;9.60;99.90
16247;DHT22;8231;50.866;7.944;2023-04-19T03:15:37;9.60;99.90
16247;DHT22;8231;50.866;7.944;2023-04-19T03:18:05;9.70;99.90
16247;DHT22;8231;50.866;7.944;2023-04-19T03:20:36;9.60;99.90
16247;DHT22;8231;50.866;7.944;2023-04-19T03:23:08;9.60;99.90
16247;DHT22;8231;50.866;7.944;2023-04-19T03:25:37;9.60;99.90
16247;DHT22;8231;50.866;7.944;2023-04-19T03:28:17;9.60;99.90
16247;DHT22;8231;50.866;7.944;2023-04-19T03:31:11;9.50;99.90
16247;DHT22;8231;50.866;7.944;2023-04-19T03:33:40;9.50;99.90
16247;DHT22;8231;50.866;7.944;2023-04-19T03:36:10;9.50;99.90
16247;DHT22;8231;50.866;7.944;2023-04-19T03:38:43;9.60;99.90
16247;DHT22;8231;50.866;7.944;2023-04-19T03:41:18;9.40;99.90
16247;DHT22;8231;50.866;7.944;2023-04-19T03:43:49;9.40;99.90
16247;DHT22;8231;50.866;7.944;2023-04-19T03:46:18;9.40;99.90
16247;DHT22;8231;50.866;7.944;2023-04-19T03:48:46;9.40;99.90
16247;DHT22;8231;50.866;7.944;2023-04-19T03:51:15;9.50;99.90
16247;DHT22;8231;50.866;7.944;2023-04-19T03:53:45;9.40;99.90
16247;DHT22;8231;50.866;7.944;2023-04-19T03:56:16;9.40;99.90
16247;DHT22;8231;50.866;7.944;2023-04-19T03:58:45;9.40;99.90
16247;DHT22;8231;50.866;7.944;2023-04-19T04:01:18;9.40;99.90
16247;DHT22;8231;50.866;7.944;2023-04-19T04:03:47;9.40;99.90
16247;DHT22;8231;50.866;7.944;2023-04-19T04:06:17;9.40;99.90
16247;DHT22;8231;50.866;7.944;2023-04-19T04:08:47;9.50;99.90
16247;DHT22;8231;50.866;7.944;2023-04-19T04:11:16;9.50;99.90
16247;DHT22;8231;50.866;7.944;2023-04-19T04:13:47;9.50;99.90
16247;DHT22;8231;50.866;7.944;2023-04-19T04:16:20;9.50;99.90
16247;DHT22;8231;50.866;7.944;2023-04-19T04:18:50;9.40;99.90
16247;DHT22;8231;50.866;7.944;2023-04-19T04:21:19;9.40;99.90
16247;DHT22;8231;50.866;7.944;2023-04-19T04:23:49;9.40;99.90
16247;DHT22;8231;50.866;7.944;2023-04-19T04:26:38;9.40;99.90
16247;DHT22;8231;50.866;7.944;2023-04-19T04:29:14;9.40;99.90
16247;DHT22;8231;50.866;7.944;2023-04-19T04:31:43;9.30;99.90
16247;DHT22;8231;50.866;7.944;2023-04-19T04:34:15;9.40;99.90
16247;DHT22;8231;50.866;7.944;2023-04-19T04:36:50;9.30;99.90
16247;DHT22;8231;50.866;7.944;2023-04-19T04:39:22;9.30;99.90
16247;DHT22;8231;50.866;7.944;2023-04-19T04:41:51;9.30;99.90
16247;DHT22;8231;50.866;7.944;2023-04-19T04:44:19;9.40;99.90
16247;DHT22;8231;50.866;7.944;2023-04-19T04:46:48;9.40;99.90
16247;DHT22;8231;50.866;7.944;2023-04-19T04:49:22;9.40;99.90
16247;DHT22;8231;50.866;7.944;2023-04-19T04:51:51;9.40;99.90
16247;DHT22;8231;50.866;7.944;2023-04-19T04:54:21;9.60;99.90
16247;DHT22;8231;50.866;7.944;2023-04-19T04:56:50;9.50;99.90
16247;DHT22;8231;50.866;7.944;2023-04-19T04:59:19;9.50;99.90
16247;DHT22;8231;50.866;7.944;2023-04-19T05:01:49;9.40;99.90
16247;DHT22;8231;50.866;7.944;2023-04-19T05:04:17;9.40;99.90
16247;DHT22;8231;50.866;7.944;2023-04-19T05:06:45;9.40;99.90
16247;DHT22;8231;50.866;7.944;2023-04-19T05:09:21;9.40;99.90
16247;DHT22;8231;50.866;7.944;2023-04-19T05:11:49;9.30;99.90
16247;DHT22;8231;50.866;7.944;2023-04-19T05:14:18;9.30;99.90
16247;DHT22;8231;50.866;7.944;2023-04-19T05:16:47;9.30;99.90
16247;DHT22;8231;50.866;7.944;2023-04-19T05:19:15;9.30;99.90
16247;DHT22;8231;50.866;7.944;2023-04-19T05:21:49;9.30;99.90
16247;DHT22;8231;50.866;7.944;2023-04-19T05:24:18;9.40;99.90
16247;DHT22;8231;50.866;7.944;2023-04-19T05:26:47;9.30;99.90
16247;DHT22;8231;50.866;7.944;2023-04-19T05:29:16;9.30;99.90
16247;DHT22;8231;50.866;7.944;2023-04-19T05:31:50;9.40;99.90
16247;DHT22;8231;50.866;7.944;2023-04-19T05:34:28;9.40;99.90
16247;DHT22;8231;50.866;7.944;2023-04-19T05:36:58;9.50;99.90
16247;DHT22;8231;50.866;7.944;2023-04-19T05:39:27;9.60;99.90
16247;DHT22;8231;50.866;7.944;2023-04-19T05:41:58;9.50;99.90
16247;DHT22;8231;50.866;7.944;2023-04-19T05:44:27;9.50;99.90
16247;DHT22;8231;50.866;7.944;2023-04-19T05:46:56;9.50;99.90
16247;DHT22;8231;50.866;7.944;2023-04-19T05:49:44;9.50;99.90
16247;DHT22;8231;50.866;7.944;2023-04-19T05:52:25;9.50;99.90
16247;DHT22;8231;50.866;7.944;2023-04-19T05:54:55;9.50;99.90
16247;DHT22;8231;50.866;7.944;2023-04-19T05:57:25;9.50;99.90
16247;DHT22;8231;50.866;7.944;2023-04-19T05:59:53;9.50;99.90
16247;DHT22;8231;50.866;7.944;2023-04-19T06:02:25;9.50;99.90
16247;DHT22;8231;50.866;7.944;2023-04-19T06:04:53;9.60;99.90
16247;DHT22;8231;50.866;7.944;2023-04-19T06:07:26;9.60;99.90
16247;DHT22;8231;50.866;7.944;2023-04-19T06:10:00;9.60;99.90
16247;DHT22;8231;50.866;7.944;2023-04-19T06:12:30;9.60;99.90
16247;DHT22;8231;50.866;7.944;2023-04-19T06:14:58;9.50;99.90
16247;DHT22;8231;50.866;7.944;2023-04-19T06:17:27;9.60;99.90
16247;DHT22;8231;50.866;7.944;2023-04-19T06:19:56;9.60;99.90
16247;DHT22;8231;50.866;7.944;2023-04-19T06:22:24;9.60;99.90
16247;DHT22;8231;50.866;7.944;2023-04-19T06:24:52;9.80;99.90
16247;DHT22;8231;50.866;7.944;2023-04-19T06:27:20;9.70;99.90
16247;DHT22;8231;50.866;7.944;2023-04-19T06:29:50;10.00;99.90
16247;DHT22;8231;50.866;7.944;2023-04-19T06:32:18;9.90;99.90
16247;DHT22;8231;50.866;7.944;2023-04-19T06:34:46;9.90;99.90
16247;DHT22;8231;50.866;7.944;2023-04-19T06:37:15;10.00;99.90
16247;DHT22;8231;50.866;7.944;2023-04-19T06:39:43;10.00;99.90
16247;DHT22;8231;50.866;7.944;2023-04-19T06:42:11;10.10;99.90
16247;DHT22;8231;50.866;7.944;2023-04-19T06:44:39;10.20;99.90
16247;DHT22;8231;50.866;7.944;2023-04-19T06:47:09;10.40;99.90
16247;DHT22;8231;50.866;7.944;2023-04-19T06:49:37;10.70;99.90
16247;DHT22;8231;50.866;7.944;2023-04-19T06:52:05;10.90;99.90
16247;DHT22;8231;50.866;7.944;2023-04-19T06:54:34;11.30;99.90
16247;DHT22;8231;50.866;7.944;2023-04-19T06:57:02;12.20;99.90
16247;DHT22;8231;50.866;7.944;2023-04-19T06:59:30;13.20;99.90
16247;DHT22;8231;50.866;7.944;2023-04-19T07:01:59;13.60;99.90
16247;DHT22;8231;50.866;7.944;2023-04-19T07:04:29;14.10;99.90
16247;DHT22;8231;50.866;7.944;2023-04-19T07:06:57;14.70;99.90
16247;DHT22;8231;50.866;7.944;2023-04-19T07:09:26;14.80;99.90
16247;DHT22;8231;50.866;7.944;2023-04-19T07:11:54;15.00;99.90
16247;DHT22;8231;50.866;7.944;2023-04-19T07:14:23;15.80;99.90
16247;DHT22;8231;50.866;7.944;2023-04-19T07:16:51;16.30;99.90
16247;DHT22;8231;50.866;7.944;2023-04-19T07:19:20;16.40;99.90
16247;DHT22;8231;50.866;7.944;2023-04-19T07:21:50;16.60;99.90
16247;DHT22;8231;50.866;7.944;2023-04-19T07:24:19;16.70;99.90
16247;DHT22;8231;50.866;7.944;2023-04-19T07:26:47;16.70;99.90
16247;DHT22;8231;50.866;7.944;2023-04-19T07:29:15;16.40;99.90
16247;DHT22;8231;50.866;7.944;2023-04-19T07:31:44;16.30;99.90
16247;DHT22;8231;50.866;7.944;2023-04-19T07:34:13;16.50;99.90
16247;DHT22;8231;50.866;7.944;2023-04-19T07:36:41;16.80;99.90
16247;DHT22;8231;50.866;7.944;2023-04-19T07:39:11;17.00;99.90
16247;DHT22;8231;50.866;7.944;2023-04-19T07:41:39;17.80;99.90
16247;DHT22;8231;50.866;7.944;2023-04-19T07:44:07;18.20;99.10
16247;DHT22;8231;50.866;7.944;2023-04-19T07:46:37;17.90;97.40
16247;DHT22;8231;50.866;7.944;2023-04-19T07:49:06;17.90;97.60
16247;DHT22;8231;50.866;7.944;2023-04-19T07:51:34;18.20;96.60
16247;DHT22;8231;50.866;7.944;2023-04-19T07:54:02;18.40;96.90
16247;DHT22;8231;50.866;7.944;2023-04-19T07:56:32;18.60;94.20
16247;DHT22;8231;50.866;7.944;2023-04-19T07:59:00;18.20;94.40
16247;DHT22;8231;50.866;7.944;2023-04-19T08:01:35;17.70;94.40
16247;DHT22;8231;50.866;7.944;2023-04-19T08:04:03;17.60;95.00
16247;DHT22;8231;50.866;7.944;2023-04-19T08:06:32;17.50;95.20
16247;DHT22;8231;50.866;7.944;2023-04-19T08:09:00;17.50;95.20
16247;DHT22;8231;50.866;7.944;2023-04-19T08:11:29;18.10;94.10
16247;DHT22;8231;50.866;7.944;2023-04-19T08:13:58;17.80;93.60
16247;DHT22;8231;50.866;7.944;2023-04-19T08:16:29;17.60;93.80
16247;DHT22;8231;50.866;7.944;2023-04-19T08:19:18;18.10;93.10
16247;DHT22;8231;50.866;7.944;2023-04-19T08:21:46;17.60;92.40
16247;DHT22;8231;50.866;7.944;2023-04-19T08:24:14;16.80;93.00
16247;DHT22;8231;50.866;7.944;2023-04-19T08:26:43;16.00;94.30
16247;DHT22;8231;50.866;7.944;2023-04-19T08:29:21;15.80;94.70
16247;DHT22;8231;50.866;7.944;2023-04-19T08:31:49;16.10;93.50
16247;DHT22;8231;50.866;7.944;2023-04-19T08:34:17;16.70;93.30
16247;DHT22;8231;50.866;7.944;2023-04-19T08:36:45;16.70;93.10
16247;DHT22;8231;50.866;7.944;2023-04-19T08:39:29;17.00;93.00
16247;DHT22;8231;50.866;7.944;2023-04-19T08:42:03;17.50;92.10
16247;DHT22;8231;50.866;7.944;2023-04-19T08:44:55;17.60;91.90
16247;DHT22;8231;50.866;7.944;2023-04-19T08:47:45;17.10;92.10
16247;DHT22;8231;50.866;7.944;2023-04-19T08:50:27;16.70;92.30
16247;DHT22;8231;50.866;7.944;2023-04-19T08:52:58;16.60;93.50
16247;DHT22;8231;50.866;7.944;2023-04-19T08:55:47;16.80;92.30
16247;DHT22;8231;50.866;7.944;2023-04-19T08:58:36;16.90;92.00
16247;DHT22;8231;50.866;7.944;2023-04-19T09:01:25;16.80;90.40
16247;DHT22;8231;50.866;7.944;2023-04-19T09:04:03;16.50;90.70
16247;DHT22;8231;50.866;7.944;2023-04-19T09:06:53;16.90;91.00
16247;DHT22;8231;50.866;7.944;2023-04-19T09:09:24;16.90;90.60
16247;DHT22;8231;50.866;7.944;2023-04-19T09:11:55;17.50;90.50
16247;DHT22;8231;50.866;7.944;2023-04-19T09:14:25;17.70;89.50
16247;DHT22;8231;50.866;7.944;2023-04-19T09:17:11;17.90;87.10
16247;DHT22;8231;50.866;7.944;2023-04-19T09:19:46;17.60;84.00
16247;DHT22;8231;50.866;7.944;2023-04-19T09:22:15;17.20;85.80
16247;DHT22;8231;50.866;7.944;2023-04-19T09:24:44;17.50;84.90
16247;DHT22;8231;50.866;7.944;2023-04-19T09:27:23;17.20;82.20
16247;DHT22;8231;50.866;7.944;2023-04-19T09:29:53;17.20;83.40
16247;DHT22;8231;50.866;7.944;2023-04-19T09:32:23;17.00;83.70
16247;DHT22;8231;50.866;7.944;2023-04-19T09:34:53;17.40;82.30
16247;DHT22;8231;50.866;7.944;2023-04-19T09:37:23;17.60;82.50
16247;DHT22;8231;50.866;7.944;2023-04-19T09:40:21;17.70;82.40
16247;DHT22;8231;50.866;7.944;2023-04-19T09:42:49;18.00;78.60
16247;DHT22;8231;50.866;7.944;2023-04-19T09:45:20;17.90;80.70
16247;DHT22;8231;50.866;7.944;2023-04-19T09:48:04;17.90;79.50
16247;DHT22;8231;50.866;7.944;2023-04-19T09:50:34;17.70;79.10
16247;DHT22;8231;50.866;7.944;2023-04-19T09:53:21;17.90;81.00
16247;DHT22;8231;50.866;7.944;2023-04-19T09:55:49;18.10;77.80
16247;DHT22;8231;50.866;7.944;2023-04-19T09:58:27;18.40;76.60
16247;DHT22;8231;50.866;7.944;2023-04-19T10:01:16;18.60;73.40
16247;DHT22;8231;50.866;7.944;2023-04-19T10:03:48;18.20;71.40
16247;DHT22;8231;50.866;7.944;2023-04-19T10:06:19;18.00;71.30
16247;DHT22;8231;50.866;7.944;2023-04-19T10:08:52;18.30;72.30
16247;DHT22;8231;50.866;7.944;2023-04-19T10:11:21;18.50;71.30
16247;DHT22;8231;50.866;7.944;2023-04-19T10:13:55;18.40;71.90
16247;DHT22;8231;50.866;7.944;2023-04-19T10:16:24;18.50;70.30
16247;DHT22;8231;50.866;7.944;2023-04-19T10:18:55;18.70;69.80
16247;DHT22;8231;50.866;7.944;2023-04-19T10:21:26;18.00;68.20
16247;DHT22;8231;50.866;7.944;2023-04-19T10:23:55;17.90;69.10
16247;DHT22;8231;50.866;7.944;2023-04-19T10:26:24;17.60;68.50
16247;DHT22;8231;50.866;7.944;2023-04-19T10:28:53;17.60;69.70
16247;DHT22;8231;50.866;7.944;2023-04-19T10:31:25;17.40;65.60
16247;DHT22;8231;50.866;7.944;2023-04-19T10:33:54;17.40;66.70
16247;DHT22;8231;50.866;7.944;2023-04-19T10:36:26;17.40;68.60
16247;DHT22;8231;50.866;7.944;2023-04-19T10:38:54;17.50;63.70
16247;DHT22;8231;50.866;7.944;2023-04-19T10:41:22;17.50;63.70
16247;DHT22;8231;50.866;7.944;2023-04-19T10:44:09;17.60;60.20
16247;DHT22;8231;50.866;7.944;2023-04-19T10:46:38;17.50;58.50
16247;DHT22;8231;50.866;7.944;2023-04-19T10:49:08;17.40;58.20
16247;DHT22;8231;50.866;7.944;2023-04-19T10:51:39;17.20;57.50
16247;DHT22;8231;50.866;7.944;2023-04-19T10:54:27;17.40;59.80
16247;DHT22;8231;50.866;7.944;2023-04-19T10:57:01;17.10;55.70
16247;DHT22;8231;50.866;7.944;2023-04-19T10:59:32;17.10;55.90
16247;DHT22;8231;50.866;7.944;2023-04-19T11:02:01;17.10;58.90
16247;DHT22;8231;50.866;7.944;2023-04-19T11:05:00;17.10;53.60
16247;DHT22;8231;50.866;7.944;2023-04-19T11:07:41;17.00;54.40
16247;DHT22;8231;50.866;7.944;2023-04-19T11:10:10;17.60;55.00
16247;DHT22;8231;50.866;7.944;2023-04-19T11:12:43;17.60;53.40
16247;DHT22;8231;50.866;7.944;2023-04-19T11:15:11;17.50;51.00
16247;DHT22;8231;50.866;7.944;2023-04-19T11:17:40;17.50;53.20
16247;DHT22;8231;50.866;7.944;2023-04-19T11:20:10;17.70;51.80
16247;DHT22;8231;50.866;7.944;2023-04-19T11:22:41;18.00;52.40
16247;DHT22;8231;50.866;7.944;2023-04-19T11:25:11;18.30;53.30
16247;DHT22;8231;50.866;7.944;2023-04-19T11:27:40;18.40;48.00
16247;DHT22;8231;50.866;7.944;2023-04-19T11:30:10;17.90;45.80
16247;DHT22;8231;50.866;7.944;2023-04-19T11:32:44;17.40;47.80
16247;DHT22;8231;50.866;7.944;2023-04-19T11:35:17;17.70;46.50
16247;DHT22;8231;50.866;7.944;2023-04-19T11:37:45;17.90;47.10
16247;DHT22;8231;50.866;7.944;2023-04-19T11:40:14;17.90;46.50
16247;DHT22;8231;50.866;7.944;2023-04-19T11:42:46;18.10;46.60
16247;DHT22;8231;50.866;7.944;2023-04-19T11:45:24;18.00;44.60
16247;DHT22;8231;50.866;7.944;2023-04-19T11:47:58;17.80;45.20
16247;DHT22;8231;50.866;7.944;2023-04-19T11:50:36;17.70;47.70
16247;DHT22;8231;50.866;7.944;2023-04-19T11:53:11;18.20;47.90
16247;DHT22;8231;50.866;7.944;2023-04-19T11:55:44;18.40;46.20
16247;DHT22;8231;50.866;7.944;2023-04-19T11:58:26;18.90;45.20
16247;DHT22;8231;50.866;7.944;2023-04-19T12:00:57;19.40;43.30
16247;DHT22;8231;50.866;7.944;2023-04-19T12:03:29;19.20;40.70
16247;DHT22;8231;50.866;7.944;2023-04-19T12:06:01;19.60;42.40
16247;DHT22;8231;50.866;7.944;2023-04-19T12:08:31;19.70;40.10
16247;DHT22;8231;50.866;7.944;2023-04-19T12:11:01;19.90;40.80
16247;DHT22;8231;50.866;7.944;2023-04-19T12:13:31;19.30;39.10
16247;DHT22;8231;50.866;7.944;2023-04-19T12:16:00;18.80;39.00
16247;DHT22;8231;50.866;7.944;2023-04-19T12:18:42;18.80;41.30
16247;DHT22;8231;50.866;7.944;2023-04-19T12:21:23;18.50;39.40
16247;DHT22;8231;50.866;7.944;2023-04-19T12:23:56;18.80;40.50
16247;DHT22;8231;50.866;7.944;2023-04-19T12:26:25;18.80;39.50
16247;DHT22;8231;50.866;7.944;2023-04-19T12:28:54;18.80;39.60
16247;DHT22;8231;50.866;7.944;2023-04-19T12:31:23;18.50;37.10
16247;DHT22;8231;50.866;7.944;2023-04-19T12:33:52;17.80;34.70
16247;DHT22;8231;50.866;7.944;2023-04-19T12:36:21;17.80;36.40
16247;DHT22;8231;50.866;7.944;2023-04-19T12:38:50;17.90;36.50
16247;DHT22;8231;50.866;7.944;2023-04-19T12:41:18;17.50;34.60
16247;DHT22;8231;50.866;7.944;2023-04-19T12:43:47;17.30;35.70
16247;DHT22;8231;50.866;7.944;2023-04-19T12:46:15;17.40;35.70
16247;DHT22;8231;50.866;7.944;2023-04-19T12:48:43;17.30;32.30
16247;DHT22;8231;50.866;7.944;2023-04-19T12:51:12;17.20;32.70
16247;DHT22;8231;50.866;7.944;2023-04-19T12:53:46;17.30;36.60
16247;DHT22;8231;50.866;7.944;2023-04-19T12:56:16;17.20;35.80
16247;DHT22;8231;50.866;7.944;2023-04-19T12:58:45;17.50;37.30
16247;DHT22;8231;50.866;7.944;2023-04-19T13:01:14;17.50;38.00
16247;DHT22;8231;50.866;7.944;2023-04-19T13:03:43;17.60;39.10
16247;DHT22;8231;50.866;7.944;2023-04-19T13:06:33;17.70;39.40
16247;DHT22;8231;50.866;7.944;2023-04-19T13:09:03;17.50;41.00
16247;DHT22;8231;50.866;7.944;2023-04-19T13:11:40;17.60;43.30
16247;DHT22;8231;50.866;7.944;2023-04-19T13:14:08;17.50;42.20
16247;DHT22;8231;50.866;7.944;2023-04-19T13:16:37;17.50;42.10
16247;DHT22;8231;50.866;7.944;2023-04-19T13:19:05;17.60;42.00
16247;DHT22;8231;50.866;7.944;2023-04-19T13:21:33;17.60;41.60
16247;DHT22;8231;50.866;7.944;2023-04-19T13:24:03;17.40;42.20
16247;DHT22;8231;50.866;7.944;2023-04-19T13:26:31;16.60;41.10
16247;DHT22;8231;50.866;7.944;2023-04-19T13:29:00;16.50;43.00
16247;DHT22;8231;50.866;7.944;2023-04-19T13:31:29;16.60;42.40
16247;DHT22;8231;50.866;7.944;2023-04-19T13:33:57;16.60;42.10
16247;DHT22;8231;50.866;7.944;2023-04-19T13:36:26;16.40;44.00
16247;DHT22;8231;50.866;7.944;2023-04-19T13:38:54;16.60;45.00
16247;DHT22;8231;50.866;7.944;2023-04-19T13:41:24;16.60;43.70
16247;DHT22;8231;50.866;7.944;2023-04-19T13:43:53;16.50;43.30
16247;DHT22;8231;50.866;7.944;2023-04-19T13:46:21;16.40;43.40
16247;DHT22;8231;50.866;7.944;2023-04-19T13:48:49;16.20;42.80
16247;DHT22;8231;50.866;7.944;2023-04-19T13:51:17;16.50;44.90
16247;DHT22;8231;50.866;7.944;2023-04-19T13:53:45;16.30;41.50
16247;DHT22;8231;50.866;7.944;2023-04-19T13:56:13;16.50;42.60
16247;DHT22;8231;50.866;7.944;2023-04-19T13:58:43;16.50;41.20
16247;DHT22;8231;50.866;7.944;2023-04-19T14:01:12;16.50;43.00
16247;DHT22;8231;50.866;7.944;2023-04-19T14:03:40;16.70;42.30
16247;DHT22;8231;50.866;7.944;2023-04-19T14:06:08;16.70;41.20
16247;DHT22;8231;50.866;7.944;2023-04-19T14:08:37;16.50;41.00
16247;DHT22;8231;50.866;7.944;2023-04-19T14:11:05;16.20;38.70
16247;DHT22;8231;50.866;7.944;2023-04-19T14:13:33;16.10;38.90
16247;DHT22;8231;50.866;7.944;2023-04-19T14:16:06;16.00;40.40
16247;DHT22;8231;50.866;7.944;2023-04-19T14:18:34;15.70;39.70
16247;DHT22;8231;50.866;7.944;2023-04-19T14:21:03;15.60;39.40
16247;DHT22;8231;50.866;7.944;2023-04-19T14:23:32;15.70;41.80
16247;DHT22;8231;50.866;7.944;2023-04-19T14:26:00;15.90;39.50
16247;DHT22;8231;50.866;7.944;2023-04-19T14:28:28;15.90;40.80
16247;DHT22;8231;50.866;7.944;2023-04-19T14:30:57;15.90;42.50
16247;DHT22;8231;50.866;7.944;2023-04-19T14:33:26;15.90;41.90
16247;DHT22;8231;50.866;7.944;2023-04-19T14:35:54;16.00;42.20
16247;DHT22;8231;50.866;7.944;2023-04-19T14:38:22;16.10;41.70
16247;DHT22;8231;50.866;7.944;2023-04-19T14:40:51;15.80;42.50
16247;DHT22;8231;50.866;7.944;2023-04-19T14:43:19;15.70;40.60
16247;DHT22;8231;50.866;7.944;2023-04-19T14:45:47;15.50;40.80
16247;DHT22;8231;50.866;7.944;2023-04-19T14:48:16;15.60;40.40
16247;DHT22;8231;50.866;7.944;2023-04-19T14:50:49;15.40;39.80
16247;DHT22;8231;50.866;7.944;2023-04-19T14:53:17;15.30;41.50
16247;DHT22;8231;50.866;7.944;2023-04-19T14:55:45;15.30;42.30
16247;DHT22;8231;50.866;7.944;2023-04-19T14:58:13;15.60;42.90
16247;DHT22;8231;50.866;7.944;2023-04-19T15:00:42;15.20;39.90
16247;DHT22;8231;50.866;7.944;2023-04-19T15:03:10;15.30;40.80
16247;DHT22;8231;50.866;7.944;2023-04-19T15:05:39;15.10;41.70
16247;DHT22;8231;50.866;7.944;2023-04-19T15:08:09;14.90;39.30
16247;DHT22;8231;50.866;7.944;2023-04-19T15:10:55;14.90;41.50
16247;DHT22;8231;50.866;7.944;2023-04-19T15:13:24;14.70;38.50
16247;DHT22;8231;50.866;7.944;2023-04-19T15:15:52;14.80;39.50
16247;DHT22;8231;50.866;7.944;2023-04-19T15:18:21;14.80;39.90
16247;DHT22;8231;50.866;7.944;2023-04-19T15:20:49;14.80;41.20
16247;DHT22;8231;50.866;7.944;2023-04-19T15:23:21;14.80;40.80
16247;DHT22;8231;50.866;7.944;2023-04-19T15:25:50;14.70;41.30
16247;DHT22;8231;50.866;7.944;2023-04-19T15:28:18;14.70;41.00
16247;DHT22;8231;50.866;7.944;2023-04-19T15:30:53;14.70;42.10
16247;DHT22;8231;50.866;7.944;2023-04-19T15:33:23;14.70;42.10
16247;DHT22;8231;50.866;7.944;2023-04-19T15:35:53;14.70;42.80
16247;DHT22;8231;50.866;7.944;2023-04-19T15:38:25;14.60;44.00
16247;DHT22;8231;50.866;7.944;2023-04-19T15:40:54;14.40;45.10
16247;DHT22;8231;50.866;7.944;2023-04-19T15:43:23;14.20;45.40
16247;DHT22;8231;50.866;7.944;2023-04-19T15:45:52;13.90;45.30
16247;DHT22;8231;50.866;7.944;2023-04-19T15:48:20;14.10;44.60
16247;DHT22;8231;50.866;7.944;2023-04-19T15:50:48;13.80;44.30
16247;DHT22;8231;50.866;7.944;2023-04-19T15:53:16;14.10;45.00
16247;DHT22;8231;50.866;7.944;2023-04-19T15:55:46;14.10;43.80
16247;DHT22;8231;50.866;7.944;2023-04-19T15:58:14;14.10;43.10
16247;DHT22;8231;50.866;7.944;2023-04-19T16:00:43;14.20;44.20
16247;DHT22;8231;50.866;7.944;2023-04-19T16:03:12;14.10;44.00
16247;DHT22;8231;50.866;7.944;2023-04-19T16:05:40;14.00;44.00
16247;DHT22;8231;50.866;7.944;2023-04-19T16:08:09;13.80;43.50
16247;DHT22;8231;50.866;7.944;2023-04-19T16:10:43;13.80;45.10
16247;DHT22;8231;50.866;7.944;2023-04-19T16:13:14;13.90;45.10
16247;DHT22;8231;50.866;7.944;2023-04-19T16:15:43;13.90;44.80